createdAt,value
2018-04-07T00:00:51.473Z,5.20
2018-04-07T00:03:18.934Z,3.77
2018-04-07T00:05:46.391Z,4.20
2018-04-07T00:08:13.860Z,4.77
2018-04-07T00:10:41.319Z,4.03
2018-04-07T00:13:09.110Z,5.47
2018-04-07T00:15:36.568Z,4.70
2018-04-07T00:18:04.796Z,4.67
2018-04-07T00:20:32.275Z,4.67
2018-04-07T00:22:59.726Z,4.50
2018-04-07T00:25:27.196Z,4.70
2018-04-07T00:27:54.681Z,5.13
2018-04-07T00:30:22.111Z,4.90
2018-04-07T00:32:49.566Z,4.60
2018-04-07T00:35:17.795Z,4.73
2018-04-07T00:37:45.250Z,4.10
2018-04-07T00:40:13.480Z,4.17
2018-04-07T00:42:40.936Z,4.97
2018-04-07T00:45:08.402Z,4.83
2018-04-07T00:47:36.622Z,4.87
2018-04-07T00:50:05.560Z,4.87
2018-04-07T00:52:44.752Z,4.30
2018-04-07T00:55:12.224Z,4.80
2018-04-07T00:57:39.679Z,4.97
2018-04-07T01:00:07.153Z,4.70
2018-04-07T01:02:34.604Z,4.27
2018-04-07T01:05:02.066Z,4.47
2018-04-07T01:07:29.522Z,4.07
2018-04-07T01:09:57.007Z,5.10
2018-04-07T01:12:24.458Z,5.37
2018-04-07T01:14:51.915Z,5.10
2018-04-07T01:17:20.140Z,4.83
2018-04-07T01:19:47.626Z,4.53
2018-04-07T01:22:15.079Z,4.90
2018-04-07T01:24:42.544Z,4.87
2018-04-07T01:27:10.775Z,4.90
2018-04-07T01:29:39.004Z,4.63
2018-04-07T01:32:07.279Z,4.80
2018-04-07T01:34:36.117Z,4.13
2018-04-07T01:37:03.571Z,5.57
2018-04-07T01:39:31.802Z,5.00
2018-04-07T01:41:59.255Z,4.57
2018-04-07T01:44:26.748Z,4.60
2018-04-07T01:46:54.198Z,4.03
2018-04-07T01:49:21.651Z,4.50
2018-04-07T01:51:49.225Z,4.50
2018-04-07T01:54:16.684Z,4.63
2018-04-07T01:56:44.141Z,4.30
2018-04-07T01:59:12.368Z,4.37
2018-04-07T02:01:39.844Z,4.40
2018-04-07T02:04:07.299Z,5.23
2018-04-07T02:06:35.524Z,4.80
2018-04-07T02:09:02.988Z,4.70
2018-04-07T02:11:31.209Z,5.60
2018-04-07T02:13:58.675Z,4.63
2018-04-07T02:16:26.127Z,4.93
2018-04-07T02:18:53.604Z,4.13
2018-04-07T02:21:21.060Z,4.03
2018-04-07T02:23:48.527Z,4.73
2018-04-07T02:26:15.974Z,4.47
2018-04-07T02:28:44.202Z,4.60
2018-04-07T02:31:11.669Z,4.13
2018-04-07T02:33:39.123Z,4.20
2018-04-07T02:36:06.584Z,4.27
2018-04-07T02:38:34.036Z,4.03
2018-04-07T02:41:01.498Z,4.20
2018-04-07T02:43:28.956Z,4.10
2018-04-07T02:45:56.410Z,4.30
2018-04-07T02:48:23.867Z,4.33
2018-04-07T02:50:51.329Z,4.53
2018-04-07T02:53:18.785Z,3.90
2018-04-07T02:55:47.016Z,4.03
2018-04-07T02:58:14.463Z,3.97
2018-04-07T03:00:41.926Z,4.17
2018-04-07T03:03:09.381Z,3.57
2018-04-07T03:05:36.835Z,3.97
2018-04-07T03:08:04.288Z,4.73
2018-04-07T03:10:31.748Z,4.47
2018-04-07T03:12:59.207Z,4.47
2018-04-07T03:15:26.667Z,4.57
2018-04-07T03:17:54.121Z,4.30
2018-04-07T03:20:22.339Z,4.30
2018-04-07T03:22:49.796Z,4.10
2018-04-07T03:25:17.260Z,3.20
2018-04-07T03:27:44.711Z,4.30
2018-04-07T03:30:12.172Z,3.90
2018-04-07T03:32:40.041Z,4.20
2018-04-07T03:35:08.296Z,4.10
2018-04-07T03:37:35.744Z,3.90
2018-04-07T03:40:03.204Z,4.40
2018-04-07T03:42:31.433Z,4.13
2018-04-07T03:44:58.904Z,4.60
2018-04-07T03:47:26.348Z,5.37
2018-04-07T03:49:53.810Z,4.93
2018-04-07T03:52:21.259Z,4.47
2018-04-07T03:54:48.723Z,4.00
2018-04-07T03:57:16.937Z,4.80
2018-04-07T03:59:44.407Z,3.90
2018-04-07T04:02:11.871Z,4.00
2018-04-07T04:04:40.101Z,4.77
2018-04-07T04:07:07.564Z,4.30
2018-04-07T04:09:35.790Z,4.07
2018-04-07T04:12:03.243Z,4.40
2018-04-07T04:14:31.484Z,4.67
2018-04-07T04:16:58.935Z,4.37
2018-04-07T04:19:26.627Z,4.00
2018-04-07T04:21:54.080Z,5.00
2018-04-07T04:24:21.551Z,4.13
2018-04-07T04:26:49.011Z,4.20
2018-04-07T04:29:16.458Z,4.33
2018-04-07T04:31:43.924Z,4.27
2018-04-07T04:34:12.147Z,5.03
2018-04-07T04:36:40.155Z,4.03
2018-04-07T04:39:07.612Z,4.73
2018-04-07T04:41:35.080Z,4.40
2018-04-07T04:44:03.292Z,4.47
2018-04-07T04:46:30.752Z,3.80
2018-04-07T04:48:58.973Z,4.03
2018-04-07T04:51:26.426Z,4.40
2018-04-07T04:53:54.649Z,4.00
2018-04-07T04:56:22.115Z,4.40
2018-04-07T04:58:50.331Z,4.37
2018-04-07T05:01:17.797Z,3.93
2018-04-07T05:03:46.006Z,4.30
2018-04-07T05:06:13.479Z,4.47
2018-04-07T05:08:41.697Z,3.97
2018-04-07T05:11:09.164Z,4.27
2018-04-07T05:13:37.388Z,4.47
2018-04-07T05:16:04.853Z,4.20
2018-04-07T05:18:33.075Z,3.50
2018-04-07T05:21:00.744Z,4.40
2018-04-07T05:23:28.204Z,4.67
2018-04-07T05:25:57.161Z,3.90
2018-04-07T05:28:24.616Z,3.80
2018-04-07T05:30:52.081Z,4.00
2018-04-07T05:33:19.531Z,4.97
2018-04-07T05:35:46.995Z,4.67
2018-04-07T05:38:14.447Z,3.80
2018-04-07T05:40:42.666Z,4.60
2018-04-07T05:43:10.139Z,4.20
2018-04-07T05:45:37.604Z,3.70
2018-04-07T05:48:05.827Z,4.40
2018-04-07T05:50:33.286Z,4.67
2018-04-07T05:53:01.511Z,4.83
2018-04-07T05:55:28.976Z,4.17
2018-04-07T05:57:56.432Z,3.67
2018-04-07T06:00:23.899Z,6.17
2018-04-07T06:02:51.360Z,3.77
2018-04-07T06:05:18.811Z,4.13
2018-04-07T06:07:46.260Z,4.20
2018-04-07T06:10:13.736Z,3.83
2018-04-07T06:12:41.186Z,4.20
2018-04-07T06:15:08.679Z,4.00
2018-04-07T06:17:36.133Z,4.00
2018-04-07T06:20:03.604Z,4.33
2018-04-07T06:22:31.058Z,4.30
2018-04-07T06:24:59.276Z,4.17
2018-04-07T06:27:26.741Z,4.60
2018-04-07T06:29:54.950Z,4.10
2018-04-07T06:32:23.363Z,3.40
2018-04-07T06:34:50.847Z,4.47
2018-04-07T06:37:18.272Z,3.80
2018-04-07T06:39:45.728Z,4.00
2018-04-07T06:42:13.191Z,4.13
2018-04-07T06:44:40.639Z,3.83
2018-04-07T06:47:08.120Z,4.37
2018-04-07T06:49:35.564Z,3.77
2018-04-07T06:52:03.027Z,4.07
2018-04-07T06:54:30.479Z,3.83
2018-04-07T06:56:58.699Z,4.20
2018-04-07T06:59:26.153Z,4.27
2018-04-07T07:01:54.384Z,3.83
2018-04-07T07:04:21.847Z,3.90
2018-04-07T07:06:50.082Z,3.93
2018-04-07T07:09:17.536Z,3.70
2018-04-07T07:11:45.762Z,4.40
2018-04-07T07:14:13.223Z,4.17
2018-04-07T07:16:40.693Z,3.47
2018-04-07T07:19:09.511Z,3.47
2018-04-07T07:21:36.972Z,4.00
2018-04-07T07:24:05.198Z,3.60
2018-04-07T07:26:35.584Z,3.83
2018-04-07T07:29:03.035Z,3.63
2018-04-07T07:31:30.511Z,3.50
2018-04-07T07:33:57.981Z,3.73
2018-04-07T07:36:26.215Z,3.63
2018-04-07T07:38:53.683Z,3.73
2018-04-07T07:41:21.163Z,3.50
2018-04-07T07:43:48.643Z,3.93
2018-04-07T07:46:16.856Z,3.47
2018-04-07T07:48:44.530Z,3.77
2018-04-07T07:51:11.992Z,4.00
2018-04-07T07:53:40.215Z,3.40
2018-04-07T07:56:07.689Z,3.30
2018-04-07T07:58:35.134Z,3.50
2018-04-07T08:01:02.599Z,3.63
2018-04-07T08:03:30.056Z,4.00
2018-04-07T08:05:57.581Z,3.30
2018-04-07T08:08:25.038Z,3.70
2018-04-07T08:10:52.514Z,3.20
2018-04-07T08:13:19.970Z,3.00
2018-04-07T08:15:47.441Z,3.30
2018-04-07T08:18:15.668Z,3.47
2018-04-07T08:20:43.172Z,3.13
2018-04-07T08:23:10.590Z,3.40
2018-04-07T08:25:38.840Z,2.67
2018-04-07T08:28:06.298Z,2.90
2018-04-07T08:30:33.762Z,3.10
2018-04-07T08:33:02.002Z,3.20
2018-04-07T08:35:29.460Z,3.10
2018-04-07T08:37:56.932Z,2.47
2018-04-07T08:40:24.398Z,3.07
2018-04-07T08:42:51.863Z,2.43
2018-04-07T08:45:19.316Z,2.80
2018-04-07T08:47:46.779Z,2.60
2018-04-07T08:50:14.855Z,2.90
2018-04-07T08:52:42.322Z,3.00
2018-04-07T08:55:10.558Z,2.90
2018-04-07T08:57:38.019Z,2.63
2018-04-07T09:00:05.479Z,2.40
2018-04-07T09:02:33.721Z,2.40
2018-04-07T09:05:01.191Z,3.20
2018-04-07T09:07:28.655Z,2.33
2018-04-07T09:09:56.867Z,2.50
2018-04-07T09:12:24.352Z,2.70
2018-04-07T09:14:52.554Z,2.93
2018-04-07T09:17:20.032Z,2.90
2018-04-07T09:19:47.479Z,2.90
2018-04-07T09:22:14.948Z,2.37
2018-04-07T09:24:42.407Z,2.33
2018-04-07T09:27:09.887Z,3.00
2018-04-07T09:29:37.349Z,2.47
2018-04-07T09:32:04.823Z,2.60
2018-04-07T09:34:33.046Z,2.90
2018-04-07T09:37:00.519Z,2.77
2018-04-07T09:39:28.811Z,2.30
2018-04-07T09:41:56.296Z,2.67
2018-04-07T09:44:23.758Z,3.60
2018-04-07T09:46:51.983Z,2.30
2018-04-07T09:49:19.453Z,2.87
2018-04-07T09:51:46.947Z,2.77
2018-04-07T09:54:17.648Z,2.50
2018-04-07T09:56:45.117Z,2.37
2018-04-07T09:59:12.574Z,2.50
2018-04-07T10:01:40.047Z,2.80
2018-04-07T10:04:07.498Z,2.23
2018-04-07T10:06:34.967Z,2.47
2018-04-07T10:09:02.427Z,2.90
2018-04-07T10:11:29.892Z,2.30
2018-04-07T10:13:57.338Z,2.33
2018-04-07T10:16:25.576Z,2.10
2018-04-07T10:18:53.039Z,2.90
2018-04-07T10:21:20.514Z,2.37
2018-04-07T10:23:48.747Z,2.63
2018-04-07T10:26:16.204Z,2.50
2018-04-07T10:28:43.672Z,2.50
2018-04-07T10:31:11.892Z,2.80
2018-04-07T10:33:39.367Z,2.77
2018-04-07T10:36:06.825Z,2.73
2018-04-07T10:38:35.063Z,2.60
2018-04-07T10:41:02.519Z,2.60
2018-04-07T10:43:30.748Z,2.20
2018-04-07T10:45:58.201Z,2.57
2018-04-07T10:48:26.435Z,2.50
2018-04-07T10:50:53.897Z,2.53
2018-04-07T10:53:22.261Z,2.50
2018-04-07T10:55:49.715Z,2.40
2018-04-07T10:58:17.200Z,2.70
2018-04-07T11:00:44.663Z,2.30
2018-04-07T11:03:12.129Z,2.50
2018-04-07T11:05:39.578Z,2.50
2018-04-07T11:08:07.810Z,2.60
2018-04-07T11:10:35.269Z,3.20
2018-04-07T11:13:02.745Z,2.40
2018-04-07T11:15:30.204Z,2.30
2018-04-07T11:17:57.669Z,2.20
2018-04-07T11:20:25.124Z,2.73
2018-04-07T11:22:52.594Z,2.53
2018-04-07T11:25:21.120Z,3.07
2018-04-07T11:27:48.582Z,2.60
2018-04-07T11:30:16.043Z,3.07
2018-04-07T11:32:43.512Z,2.50
2018-04-07T11:35:10.994Z,2.83
2018-04-07T11:37:39.285Z,2.90
2018-04-07T11:40:06.737Z,2.70
2018-04-07T11:42:34.212Z,3.30
2018-04-07T11:45:01.668Z,3.10
2018-04-07T11:47:29.898Z,3.17
2018-04-07T11:49:58.124Z,3.23
2018-04-07T11:52:26.124Z,3.23
2018-04-07T11:54:53.587Z,3.10
2018-04-07T11:57:21.055Z,2.73
2018-04-07T11:59:48.519Z,3.57
2018-04-07T12:02:16.785Z,2.77
2018-04-07T12:04:44.202Z,3.07
2018-04-07T12:07:12.434Z,3.90
2018-04-07T12:09:39.892Z,4.93
2018-04-07T12:12:07.375Z,3.83
2018-04-07T12:14:34.841Z,3.60
2018-04-07T12:17:03.080Z,3.40
2018-04-07T12:19:31.305Z,3.90
2018-04-07T12:21:58.791Z,3.50
2018-04-07T12:24:26.271Z,3.67
2018-04-07T12:26:53.735Z,3.73
2018-04-07T12:29:21.207Z,3.97
2018-04-07T12:31:48.671Z,4.50
2018-04-07T12:34:16.132Z,4.07
2018-04-07T12:36:44.360Z,3.83
2018-04-07T12:39:11.840Z,3.77
2018-04-07T12:41:39.307Z,3.80
2018-04-07T12:44:06.783Z,3.50
2018-04-07T12:46:35.019Z,5.20
2018-04-07T12:49:02.500Z,3.80
2018-04-07T12:51:29.958Z,3.10
2018-04-07T12:53:57.431Z,3.90
2018-04-07T12:56:25.659Z,3.80
2018-04-07T12:58:53.130Z,4.10
2018-04-07T13:01:20.585Z,3.70
2018-04-07T13:03:48.839Z,5.33
2018-04-07T13:06:16.327Z,4.47
2018-04-07T13:08:43.787Z,3.63
2018-04-07T13:11:11.247Z,3.20
2018-04-07T13:13:41.771Z,4.43
2018-04-07T13:16:09.236Z,5.70
2018-04-07T13:18:36.708Z,6.13
2018-04-07T13:21:04.179Z,4.40
2018-04-07T13:23:31.664Z,3.90
2018-04-07T13:25:59.122Z,4.63
2018-04-07T13:28:26.614Z,4.47
2018-04-07T13:30:54.060Z,5.30
2018-04-07T13:33:22.299Z,5.23
2018-04-07T13:35:49.765Z,5.10
2018-04-07T13:38:17.236Z,5.03
2018-04-07T13:40:45.476Z,4.90
2018-04-07T13:43:12.948Z,5.43
2018-04-07T13:45:40.408Z,4.97
2018-04-07T13:48:07.875Z,4.50
2018-04-07T13:50:36.098Z,6.03
2018-04-07T13:53:03.564Z,4.60
2018-04-07T13:55:31.779Z,3.60
2018-04-07T13:57:59.252Z,4.37
2018-04-07T14:00:27.483Z,4.27
2018-04-07T14:02:54.948Z,4.03
2018-04-07T14:05:22.404Z,4.43
2018-04-07T14:07:50.657Z,3.97
2018-04-07T14:10:18.119Z,4.27
2018-04-07T14:12:45.591Z,4.30
2018-04-07T14:15:13.091Z,4.97
2018-04-07T14:17:40.556Z,4.80
2018-04-07T14:20:08.015Z,4.80
2018-04-07T14:22:36.252Z,4.07
2018-04-07T14:25:03.712Z,4.83
2018-04-07T14:27:31.944Z,4.77
2018-04-07T14:30:00.170Z,5.37
2018-04-07T14:32:28.415Z,5.30
2018-04-07T14:34:55.875Z,5.43
2018-04-07T14:37:23.347Z,4.57
2018-04-07T14:39:50.820Z,4.77
2018-04-07T14:42:18.322Z,8.30
2018-04-07T14:44:46.555Z,8.77
2018-04-07T14:47:14.028Z,13.40
2018-04-07T14:49:41.490Z,15.80
2018-04-07T14:52:09.723Z,10.23
2018-04-07T14:54:37.208Z,5.27
2018-04-07T14:57:05.657Z,5.40
2018-04-07T14:59:33.147Z,5.50
2018-04-07T15:02:00.605Z,4.67
2018-04-07T15:04:28.074Z,5.27
2018-04-07T15:06:55.529Z,5.47
2018-04-07T15:09:23.000Z,9.73
2018-04-07T15:11:52.052Z,8.47
2018-04-07T15:14:19.523Z,10.07
2018-04-07T15:16:46.987Z,6.00
2018-04-07T15:19:15.480Z,4.70
2018-04-07T15:21:42.936Z,4.33
2018-04-07T15:24:10.421Z,4.37
2018-04-07T15:26:37.871Z,4.30
2018-04-07T15:29:05.339Z,4.30
2018-04-07T15:31:32.817Z,4.07
2018-04-07T15:34:00.287Z,4.57
2018-04-07T15:36:27.747Z,4.00
2018-04-07T15:38:55.210Z,3.90
2018-04-07T15:41:22.675Z,4.40
2018-04-07T15:43:50.143Z,5.03
2018-04-07T15:46:17.602Z,4.30
2018-04-07T15:48:45.313Z,4.00
2018-04-07T15:51:12.781Z,4.20
2018-04-07T15:53:40.296Z,4.63
2018-04-07T15:56:07.720Z,3.70
2018-04-07T15:58:35.966Z,4.40
2018-04-07T16:01:03.428Z,4.10
2018-04-07T16:03:30.903Z,4.07
2018-04-07T16:05:58.359Z,4.67
2018-04-07T16:08:25.827Z,4.13
2018-04-07T16:10:53.297Z,4.43
2018-04-07T16:13:20.792Z,4.40
2018-04-07T16:15:48.259Z,4.00
2018-04-07T16:18:15.744Z,4.70
2018-04-07T16:20:43.207Z,3.90
2018-04-07T16:23:10.679Z,4.43
2018-04-07T16:25:38.158Z,4.30
2018-04-07T16:28:05.615Z,4.97
2018-04-07T16:30:33.107Z,4.00
2018-04-07T16:33:00.589Z,4.30
2018-04-07T16:35:28.057Z,5.10
2018-04-07T16:37:57.255Z,3.83
2018-04-07T16:40:24.726Z,4.67
2018-04-07T16:42:52.183Z,4.53
2018-04-07T16:45:19.700Z,4.17
2018-04-07T16:47:47.127Z,4.33
2018-04-07T16:50:14.604Z,4.27
2018-04-07T16:52:42.232Z,4.23
2018-04-07T16:55:11.769Z,4.60
2018-04-07T16:57:39.241Z,4.30
2018-04-07T17:00:06.711Z,5.53
2018-04-07T17:02:34.175Z,4.90
2018-04-07T17:05:01.654Z,7.10
2018-04-07T17:07:30.318Z,6.30
2018-04-07T17:10:08.190Z,5.33
2018-04-07T17:12:35.646Z,5.03
2018-04-07T17:15:04.900Z,6.00
2018-04-07T17:17:32.371Z,5.20
2018-04-07T17:19:59.901Z,5.50
2018-04-07T17:22:29.251Z,5.73
2018-04-07T17:25:00.392Z,5.27
2018-04-07T17:27:27.872Z,5.13
2018-04-07T17:29:55.337Z,4.70
2018-04-07T17:32:22.927Z,6.57
2018-04-07T17:34:50.407Z,6.63
2018-04-07T17:37:17.876Z,6.17
2018-04-07T17:39:46.247Z,6.80
2018-04-07T17:42:13.710Z,7.10
2018-04-07T17:44:41.943Z,7.20
2018-04-07T17:47:20.668Z,6.87
2018-04-07T17:50:00.944Z,7.63
2018-04-07T17:52:29.770Z,9.80
2018-04-07T17:54:57.247Z,8.60
2018-04-07T17:57:24.703Z,7.63
2018-04-07T17:59:52.175Z,8.10
2018-04-07T18:02:20.638Z,7.03
2018-04-07T18:04:48.878Z,8.00
2018-04-07T18:07:26.211Z,8.23
2018-04-07T18:09:53.682Z,7.10
2018-04-07T18:12:31.420Z,8.00
2018-04-07T18:14:59.891Z,7.80
2018-04-07T18:17:39.092Z,8.90
2018-04-07T18:20:07.612Z,8.30
2018-04-07T18:22:39.304Z,8.77
2018-04-07T18:25:07.782Z,9.30
2018-04-07T18:27:37.201Z,9.20
2018-04-07T18:30:11.660Z,9.30
2018-04-07T18:32:39.874Z,9.80
2018-04-07T18:35:07.775Z,8.90
2018-04-07T18:37:39.860Z,9.50
2018-04-07T18:40:18.267Z,9.53
2018-04-07T18:42:45.744Z,9.20
2018-04-07T18:45:13.212Z,9.40
2018-04-07T18:47:40.700Z,8.90
2018-04-07T18:50:13.438Z,9.80
2018-04-07T18:52:41.992Z,9.70
2018-04-07T18:55:09.504Z,11.60
2018-04-07T18:57:36.963Z,9.20
2018-04-07T19:00:04.431Z,9.03
2018-04-07T19:02:32.522Z,11.60
2018-04-07T19:05:05.107Z,9.40
2018-04-07T19:07:33.324Z,10.40
2018-04-07T19:10:00.786Z,9.00
2018-04-07T19:12:29.025Z,9.00
2018-04-07T19:14:59.766Z,10.37
2018-04-07T19:17:27.317Z,9.30
2018-04-07T19:19:55.001Z,8.90
2018-04-07T19:22:22.450Z,10.57
2018-04-07T19:24:50.819Z,10.87
2018-04-07T19:27:18.292Z,9.50
2018-04-07T19:29:45.759Z,9.47
2018-04-07T19:32:34.504Z,9.30
2018-04-07T19:35:01.971Z,9.20
2018-04-07T19:37:30.190Z,11.03
2018-04-07T19:39:57.660Z,12.70
2018-04-07T19:42:25.125Z,12.00
2018-04-07T19:44:56.568Z,12.30
2018-04-07T19:47:24.799Z,15.10
2018-04-07T19:49:52.272Z,8.97
2018-04-07T19:52:19.735Z,11.13
2018-04-07T19:54:49.903Z,8.53
2018-04-07T19:57:17.361Z,9.20
2018-04-07T19:59:45.525Z,10.07
2018-04-07T20:02:12.979Z,9.33
2018-04-07T20:04:41.157Z,10.90
2018-04-07T20:07:08.624Z,8.80
2018-04-07T20:09:36.856Z,8.77
2018-04-07T20:12:06.240Z,7.43
2018-04-07T20:14:34.470Z,8.83
2018-04-07T20:17:01.923Z,7.77
2018-04-07T20:19:30.147Z,7.27
2018-04-07T20:21:57.631Z,8.23
2018-04-07T20:24:25.085Z,8.40
2018-04-07T20:27:08.279Z,7.80
2018-04-07T20:29:35.779Z,8.23
2018-04-07T20:32:03.247Z,8.00
2018-04-07T20:34:30.713Z,7.33
2018-04-07T20:36:58.171Z,8.00
2018-04-07T20:39:27.386Z,8.63
2018-04-07T20:41:55.627Z,8.30
2018-04-07T20:44:33.972Z,7.90
2018-04-07T20:47:01.444Z,7.40
2018-04-07T20:49:28.889Z,8.63
2018-04-07T20:51:57.294Z,8.03
2018-04-07T20:54:25.519Z,7.03
2018-04-07T20:56:52.983Z,8.20
2018-04-07T20:59:21.208Z,7.60
2018-04-07T21:01:48.684Z,7.50
2018-04-07T21:04:16.135Z,8.67
2018-04-07T21:06:43.599Z,8.27
2018-04-07T21:09:11.062Z,7.87
2018-04-07T21:11:38.525Z,7.77
2018-04-07T21:14:05.976Z,7.97
2018-04-07T21:16:34.206Z,8.27
2018-04-07T21:19:01.698Z,7.57
2018-04-07T21:21:29.134Z,8.70
2018-04-07T21:23:57.363Z,8.20
2018-04-07T21:26:24.831Z,8.87
2018-04-07T21:28:53.057Z,8.00
2018-04-07T21:31:20.539Z,8.20
2018-04-07T21:33:52.699Z,10.87
2018-04-07T21:36:20.944Z,9.67
2018-04-07T21:38:48.399Z,8.37
2018-04-07T21:41:15.870Z,8.10
2018-04-07T21:43:48.238Z,8.43
2018-04-07T21:46:15.707Z,7.50
2018-04-07T21:48:44.148Z,8.50
2018-04-07T21:51:12.386Z,7.60
2018-04-07T21:53:39.848Z,7.57
2018-04-07T21:56:07.318Z,7.83
2018-04-07T21:58:34.766Z,7.70
2018-04-07T22:01:02.230Z,7.37
2018-04-07T22:03:29.684Z,7.33
2018-04-07T22:05:57.151Z,6.27
2018-04-07T22:08:24.611Z,6.70
2018-04-07T22:10:52.848Z,6.77
2018-04-07T22:13:22.212Z,6.10
2018-04-07T22:15:49.683Z,6.23
2018-04-07T22:18:17.135Z,6.47
2018-04-07T22:20:44.598Z,6.40
2018-04-07T22:23:12.062Z,5.77
2018-04-07T22:25:40.295Z,6.40
2018-04-07T22:28:11.321Z,5.70
2018-04-07T22:30:39.739Z,6.20
2018-04-07T22:33:09.869Z,6.03
2018-04-07T22:35:37.339Z,6.17
2018-04-07T22:38:06.784Z,5.70
2018-04-07T22:40:34.252Z,6.30
2018-04-07T22:43:01.712Z,5.97
2018-04-07T22:45:29.176Z,6.50
2018-04-07T22:47:57.391Z,6.27
2018-04-07T22:50:30.738Z,5.97
2018-04-07T22:52:58.183Z,8.70
2018-04-07T22:55:26.436Z,7.80
2018-04-07T23:01:12.576Z,6.90
2018-04-07T23:03:40.030Z,8.40
2018-04-07T23:06:12.920Z,7.37
2018-04-07T23:08:40.377Z,6.87
2018-04-07T23:11:08.795Z,31.27
2018-04-07T23:13:37.020Z,14.37
2018-04-07T23:16:04.495Z,12.00
2018-04-07T23:18:31.956Z,15.00
2018-04-07T23:21:00.192Z,12.30
2018-04-07T23:23:27.667Z,9.73
2018-04-07T23:25:55.143Z,13.50
2018-04-07T23:28:22.600Z,8.90
2018-04-07T23:30:55.925Z,9.83
2018-04-07T23:33:24.139Z,9.00
2018-04-07T23:35:51.599Z,7.10
2018-04-07T23:38:19.816Z,5.73
2018-04-07T23:40:47.271Z,7.27
2018-04-07T23:43:39.099Z,6.90
2018-04-07T23:46:06.574Z,7.13
2018-04-07T23:48:34.021Z,6.67
2018-04-07T23:51:01.491Z,6.63
2018-04-07T23:53:29.708Z,5.90
2018-04-07T23:55:57.175Z,5.73
2018-04-07T23:58:26.375Z,6.43
